Historyczne dane pomiarowe

Dodano dane terminowe – wersja testowa.

Dane z okresu 1951-2019

Wersja bazy: 1.34 [2019-03-16, lista zmian], aktualizacja planowana na 2019-04-15

Dane meteo z obszaru Polski uzyskane na podstawie danych udostępnionych przez Instytut Meteorologii i Gospodarki Wodnej – Państwowy Instytut Badawczy.

 

Wybierz Datę:    

       

TemperaturaWilgotnośćWiatrCiśnienieOpadyŚniegCzas trwania zjawisk
 Stacja t tx tn tng RH VA  wxwx mslp ppp RRR   cm mm wxwxwxwxwxwxwx
1980-10-11 6.6 8.7 5.1 5.6 84.5- 8.0 2.3---- 0.2------------
1980-10-12 9.9 17.7 5.3 2.9 70.0- 3.3 1.3---- 0.2------------
1980-10-13 8.7 17.9 2.0 2.5 86.3- 4.3 1.7---- 16.2------------
1980-10-14 8.1 10.7 6.3 4.7 85.8- 6.7 3.0---- 2.4------------
1980-10-15 9.3 12.5 5.9 2.9 65.5- 3.0 3.3---- 0.0------------
1980-10-16 12.0 14.9 8.3 4.3 74.5- 3.7 3.0---- 0.0------------
1980-10-17 10.8 21.9 4.9 3.1 82.3- 0.0 0.3---- 0.0------------
1980-10-18 16.1 21.7 5.1 3.3 65.8- 6.7 2.0---- 2.3------------
1980-10-19 9.4 14.7 6.1 5.6 95.0- 8.0 1.0---- 10.7------------
1980-10-20 5.7 8.7 3.0 3.1 94.8- 6.7 0.0---- 0.3------------
1980-10-21 0.7 7.7 -2.3 -3.1 87.3- 0.7 0.0---- 0.0------------
1980-10-22 3.2 13.2 -3.9 -4.7 72.0- 1.3 1.0---- 0.0------------
1980-10-23 10.8 13.0 1.8 -1.7 68.3- 6.3 3.0---- 0.0------------
1980-10-24 10.5 12.6 8.5 5.2 73.0- 6.0 2.7---- 0.0------------
1980-10-25 10.5 13.7 6.3 3.3 71.8- 6.7 3.3---- 1.3------------
1980-10-26 4.7 9.5 -0.9 -3.6 83.3- 5.3 2.7---- 0.0------------
1980-10-27 1.4 8.1 -3.0 -4.1 80.0- 5.7 0.0---- 0.0------------
1980-10-28 6.9 10.6 1.0 -0.1 70.0- 2.7 4.7---- 0.0------------
1980-10-29 10.5 14.8 5.7 2.8 60.5- 0.7 7.7---- 1.7------------
1980-10-30 6.5 12.1 4.4 1.8 80.3- 8.0 6.3---- 4.4------------
1980-10-31 2.1 5.6 -1.8 -2.1 87.3- 8.0 2.7---- 3.7------------
1980-11-01 -2.7 -0.6 -4.1 -6.8 79.0- 6.7 2.3---- 0.0------------
1980-11-02 -3.9 -2.6 -5.6 -7.8 79.3- 8.0 5.7---- 0.0------------
1980-11-03 -3.3 -1.3 -4.3 -4.6 87.5- 8.0 3.7---- 1.8-- 1---------
1980-11-04 -4.2 -2.5 -4.9 -4.0 95.0- 8.0 1.7---- 6.9-- 2---------
1980-11-05 -3.2 -1.2 -4.9 -4.7 92.8- 8.0 3.0---- 6.0-- 12---------
1980-11-06 -1.1 -0.2 -2.6 -2.7 93.8- 8.0 2.3---- 9.0-- 10---------
1980-11-07 -0.2 0.9 -0.9 -0.7 94.3- 8.0 1.3---- 5.6-- 5---------
1980-11-08 -4.0 -0.1 -5.3 -7.3 89.8- 8.0 1.0---- 0.2-- 5---------
1980-11-09 -2.9 2.6-16.2-18.1 86.0- 8.0 2.7---- 2.9-- 4---------
309.2 ms

 

Źródłem pochodzenia danych jest Instytut Meteorologii i Gospodarki Wodnej – Państwowy Instytut Badawczy. Dane Instytutu Meteorologii i Gospodarki Wodnej – Państwowego Instytutu Badawczego zostały przetworzone.

Dane źródłowe można odnaleźć na stronie https://dane.imgw.pl